Date,TemperatureHighF,TemperatureAvgF,TemperatureLowF,DewpointHighF,DewpointAvgF,DewpointLowF,HumidityHigh,HumidityAvg,HumidityLow,PressureMaxIn,PressureMinIn,WindSpeedMaxMPH,WindSpeedAvgMPH,GustSpeedMaxMPH,PrecipitationSumIn
2013-1-1,78,72,66,64,62,59,83,69,59,30.16,30.00,22,3,22,0.00
2013-1-2,82,71,62,68,64,59,92,78,53,30.05,29.94,12,1,12,0.00
2013-1-3,82,73,67,69,67,65,92,81,60,30.09,29.98,11,1,13,0.00
2013-1-4,80,72,66,71,68,63,92,87,67,30.18,30.06,10,2,11,0.01
2013-1-5,74,70,66,70,66,64,92,90,82,30.21,30.11,15,2,15,0.05
2013-1-6,80,73,66,73,68,63,92,86,73,30.14,30.01,17,2,17,0.01
2013-1-7,74,71,68,70,68,66,92,90,80,30.12,30.02,15,2,15,0.00
2013-1-8,81,75,69,73,70,67,92,86,72,30.15,30.03,19,3,19,0.00
2013-1-9,80,77,74,72,71,69,90,82,74,30.24,30.11,25,6,25,0.00
2013-1-10,79,76,73,70,67,64,82,75,63,30.25,30.13,24,5,28,0.08
2013-1-11,80,75,72,70,68,66,86,78,68,30.21,30.11,20,4,20,0.00
2013-1-12,78,74,67,70,68,64,91,82,69,30.14,30.05,17,2,17,0.03
2013-1-13,80,74,67,68,66,64,92,77,63,30.09,30.02,19,3,20,0.03
2013-1-14,79,72,64,66,64,62,92,78,62,30.13,30.07,18,2,19,0.00
2013-1-15,77,72,66,70,67,63,92,85,73,30.09,30.00,14,2,15,0.03
2013-1-16,80,72,64,70,67,61,92,84,69,30.06,29.97,15,2,16,0.04
2013-1-17,80,71,60,72,66,54,92,85,70,30.05,29.93,24,3,24,0.02
2013-1-18,70,63,52,60,54,47,83,74,64,30.19,30.05,19,5,19,0.00
2013-1-19,70,68,64,67,63,58,92,86,67,30.18,30.04,12,1,15,0.16
2013-1-20,79,70,64,70,66,62,92,86,68,30.10,29.96,14,1,15,0.18
2013-1-21,79,72,66,71,67,63,92,86,74,30.03,29.91,13,1,13,0.01
2013-1-22,74,67,62,64,60,55,92,78,61,30.17,29.96,22,4,22,0.00
2013-1-23,72,66,60,58,56,54,85,71,54,30.25,30.15,19,3,19,0.00
2013-1-24,74,65,58,56,54,44,88,69,45,30.25,30.15,17,2,17,0.00
2013-1-25,75,65,58,60,56,52,89,73,52,30.24,30.13,14,2,14,0.00
2013-1-26,76,66,59,62,59,53,92,77,54,30.21,30.11,13,1,15,0.00
2013-1-27,76,69,62,64,61,58,92,76,59,30.24,30.15,17,3,17,0.00
2013-1-28,78,74,70,66,64,62,79,72,60,30.27,30.17,21,4,22,0.00
2013-1-29,78,74,67,70,67,64,91,80,68,30.19,30.07,22,3,22,0.00
2013-1-30,80,74,70,68,66,64,88,76,64,30.08,29.92,23,4,26,0.00
2013-1-31,72,66,58,69,59,44,92,80,55,30.14,29.90,20,4,20,0.00
2013-2-1,71,61,52,56,50,40,77,66,58,30.23,30.12,22,6,22,0.00
2013-2-2,72,63,54,56,50,42,89,65,48,30.22,30.07,15,2,15,0.00
2013-2-3,72,62,54,56,51,40,92,69,32,30.13,30.02,16,2,16,0.00
2013-2-4,75,62,50,57,50,43,89,67,35,30.10,29.98,15,1,15,0.00
2013-2-5,77,66,54,64,59,52,92,78,54,30.04,29.95,15,1,15,0.00
2013-2-6,76,69,61,67,63,58,92,80,68,30.06,29.98,13,1,13,0.00
2013-2-7,80,72,62,67,64,60,92,77,55,30.03,29.90,16,2,16,0.00
2013-2-8,81,74,66,70,68,62,92,83,67,29.99,29.86,16,2,17,0.00
2013-2-9,77,70,63,67,63,59,92,80,67,30.13,29.97,19,4,20,0.00
2013-2-10,74,71,68,65,62,58,87,74,70,30.22,30.10,21,4,25,0.02
2013-2-11,78,72,66,66,64,61,87,77,67,30.17,30.07,18,3,18,0.00
2013-2-12,86,73,63,70,66,60,92,79,46,30.08,29.92,19,2,19,0.00
2013-2-13,86,77,68,72,69,65,92,79,55,29.96,29.84,21,3,21,0.00
2013-2-14,79,70,63,72,67,60,92,89,76,29.97,29.81,26,3,28,0.76
2013-2-15,71,66,63,67,64,61,92,91,83,29.98,29.89,14,1,14,0.12
2013-2-16,72,65,56,63,57,47,93,78,46,30.04,29.83,23,5,24,0.05
2013-2-17,56,51,45,47,32,21,75,50,29,30.27,30.03,30,7,30,0.00
2013-2-18,68,59,47,58,46,34,73,63,49,30.28,30.16,22,4,22,0.00
2013-2-19,77,70,59,67,62,55,91,75,64,30.16,30.03,21,3,21,0.10
2013-2-20,77,70,65,67,64,59,92,83,57,30.07,29.97,15,2,15,0.00
2013-2-21,80,72,64,69,65,62,92,80,63,30.05,29.95,17,2,17,0.00
2013-2-22,80,75,71,72,70,66,89,83,71,30.06,29.97,21,5,21,0.00
2013-2-23,84,77,73,73,70,69,90,81,63,30.00,29.87,19,4,19,0.00
2013-2-24,88,77,71,73,70,64,92,79,47,29.95,29.85,15,2,15,0.00
2013-2-25,83,75,69,73,70,66,92,83,67,29.88,29.76,25,2,25,0.04
2013-2-26,86,79,74,73,71,69,90,77,60,29.85,29.75,25,5,26,0.00
2013-2-27,77,70,65,73,66,62,92,86,69,29.93,29.82,14,2,14,0.30
2013-2-28,68,64,60,63,56,49,92,76,56,29.97,29.86,16,3,17,0.07
2013-3-1,64,61,58,58,53,48,86,74,62,29.95,29.86,16,3,16,0.00
2013-3-2,64,58,52,50,44,36,76,62,46,30.00,29.91,29,6,29,0.00
2013-3-3,61,54,50,47,44,41,89,70,51,30.11,29.92,20,4,20,0.01
2013-3-4,66,54,44,46,39,32,82,59,33,30.18,30.08,20,4,21,0.00
2013-3-5,74,63,50,58,54,46,95,74,49,30.14,30.04,19,2,19,0.00
2013-3-6,76,65,52,64,53,31,91,68,29,30.06,29.91,24,3,24,0.00
2013-3-7,69,58,48,56,46,37,89,65,43,30.15,30.02,17,3,17,0.00
2013-3-8,74,63,53,55,51,42,92,69,32,30.16,30.05,14,2,14,0.00
2013-3-9,72,64,55,58,54,51,92,72,56,30.15,30.06,19,3,19,0.00
2013-3-10,74,69,64,62,57,54,77,66,54,30.12,30.02,21,5,21,0.00
2013-3-11,76,71,68,63,61,58,78,70,55,30.07,29.91,20,4,20,0.00
2013-3-12,82,74,69,69,66,62,87,76,62,29.96,29.86,21,4,23,0.00
2013-3-13,73,65,57,66,55,45,91,71,39,30.08,29.93,20,5,20,0.00
2013-3-14,69,61,54,54,47,37,89,64,36,30.17,30.05,19,6,19,0.00
2013-3-15,70,62,52,55,50,46,81,68,47,30.21,30.10,16,4,16,0.00
2013-3-16,74,65,53,58,54,51,92,71,49,30.15,30.05,17,2,17,0.00
2013-3-17,76,68,58,62,59,55,91,74,56,30.11,29.98,15,2,19,0.00
2013-3-18,80,71,64,70,65,60,91,82,67,30.03,29.92,19,4,21,0.09
2013-3-19,78,72,68,69,67,65,92,85,69,29.97,29.76,18,2,20,0.00
2013-3-20,84,73,64,69,64,59,92,76,52,29.93,29.76,19,2,22,0.01
2013-3-21,73,66,60,62,53,40,90,66,32,29.91,29.79,21,3,21,0.00
2013-3-22,76,68,57,69,60,53,91,78,61,29.96,29.85,19,3,19,0.00
2013-3-23,87,78,72,74,71,68,91,79,54,29.94,29.76,20,2,20,0.06
2013-3-24,88,79,73,73,71,68,91,78,58,29.85,29.65,30,7,33,0.03
2013-3-25,75,73,64,72,61,46,91,69,43,29.95,29.70,19,4,20,0.02
2013-3-26,65,60,52,47,41,33,68,52,34,30.17,29.94,22,8,23,0.00
2013-3-27,67,56,46,49,42,36,82,61,39,30.22,30.13,19,4,19,0.00
2013-3-28,71,60,50,52,46,38,82,61,34,30.23,30.12,16,3,16,0.00
2013-3-29,72,64,56,55,51,45,74,62,48,30.25,30.16,18,4,18,0.00
2013-3-30,74,66,57,58,54,48,92,66,41,30.22,30.12,20,2,22,0.00
2013-3-31,80,70,60,66,62,55,90,74,57,30.15,30.00,21,3,23,0.00
2013-4-1,86,74,68,71,67,62,90,78,47,30.01,29.90,19,2,19,0.44
2013-4-2,82,72,66,68,65,62,92,79,52,30.04,29.94,14,3,14,0.00
2013-4-3,81,75,68,70,68,65,90,78,61,30.02,29.94,21,4,21,0.00
2013-4-4,84,75,69,73,69,66,91,83,68,30.00,29.86,23,4,25,0.66
2013-4-5,72,68,64,69,65,62,92,90,82,29.95,29.78,16,3,18,0.10
2013-4-6,75,68,59,66,61,57,91,80,66,30.04,29.88,19,5,20,0.03
2013-4-7,76,72,69,65,64,62,85,74,66,30.10,29.97,18,5,18,0.02
2013-4-8,80,72,62,66,62,55,91,72,45,30.09,30.00,11,0,11,0.02
2013-4-9,79,74,66,68,66,63,91,78,65,30.10,30.00,18,4,19,0.01
2013-4-10,82,77,71,72,70,66,86,80,69,30.06,29.95,21,5,21,0.01
2013-4-11,83,78,75,73,72,70,87,81,71,29.97,29.85,24,8,25,0.02
2013-4-12,86,79,72,76,74,68,90,84,71,29.91,29.82,20,4,20,0.13
2013-4-13,85,77,73,75,72,69,90,86,70,29.93,29.83,12,1,12,0.04
2013-4-14,85,78,73,75,72,70,91,82,66,29.92,29.85,16,4,19,0.01
2013-4-15,87,78,70,76,72,67,90,84,63,30.01,29.88,21,3,21,0.01
2013-4-16,84,77,72,76,72,69,91,84,70,30.08,29.97,22,5,22,0.01
2013-4-17,81,77,73,71,69,68,88,78,66,30.07,29.97,18,4,18,0.01
2013-4-18,85,79,74,73,71,68,87,76,62,30.02,29.93,21,5,21,0.00
2013-4-19,86,81,77,74,72,69,84,76,60,30.00,29.91,24,6,24,0.01
2013-4-20,88,78,72,76,72,68,90,83,56,30.03,29.89,23,3,23,0.00
2013-4-21,83,76,72,74,71,68,90,83,67,30.05,29.94,19,4,19,0.00
2013-4-22,83,74,68,72,69,65,91,85,65,30.00,29.88,18,2,19,0.01
2013-4-23,80,74,68,70,66,62,92,77,63,30.05,29.91,22,6,22,0.01
2013-4-24,80,75,68,67,64,62,87,69,58,30.09,29.99,17,4,17,0.00
2013-4-25,80,75,69,65,63,61,80,68,57,30.16,30.03,21,4,21,0.01
2013-4-26,79,74,66,67,65,62,89,74,62,30.18,30.07,21,5,21,0.00
2013-4-27,79,76,70,68,65,61,81,70,55,30.17,30.03,22,6,22,0.01
2013-4-28,80,76,72,67,64,61,80,68,55,30.08,29.95,19,6,19,0.00
2013-4-29,82,77,74,72,68,63,83,75,67,29.99,29.89,21,4,21,0.00
2013-4-30,83,76,71,73,70,67,90,83,65,29.95,29.88,21,2,22,0.00
2013-5-1,84,75,70,73,70,67,91,85,67,29.96,29.87,16,2,16,0.00
2013-5-2,79,72,69,73,68,66,91,90,82,29.90,29.74,23,4,24,0.01
2013-5-3,84,73,68,71,68,65,91,84,63,29.77,29.64,17,2,18,0.01
2013-5-4,86,76,68,70,68,65,91,77,55,29.77,29.64,17,3,17,0.00
2013-5-5,78,72,67,67,63,55,90,74,45,29.89,29.72,17,4,17,0.01
2013-5-6,84,72,60,66,61,57,89,70,45,29.97,29.87,14,1,14,0.00
2013-5-7,84,73,64,64,61,58,89,69,43,30.02,29.93,20,3,20,0.00
2013-5-8,85,74,63,66,61,53,90,67,36,30.09,30.00,15,2,17,0.00
2013-5-9,86,77,67,73,68,60,86,74,54,30.09,30.01,17,2,17,0.00
2013-5-10,87,80,72,74,72,68,89,77,58,30.09,29.97,20,3,20,0.21
2013-5-11,86,78,72,75,72,68,90,82,65,30.02,29.93,21,3,22,0.15
2013-5-12,88,78,72,75,71,68,90,81,57,30.02,29.90,19,2,19,0.24
2013-5-13,84,77,71,72,70,66,91,78,59,30.04,29.94,15,3,16,0.01
2013-5-14,79,75,70,68,62,57,86,67,51,30.13,30.02,21,5,21,0.00
2013-5-15,79,74,67,66,62,58,86,68,50,30.15,30.05,18,4,19,0.00
2013-5-16,81,75,66,66,63,58,88,67,52,30.07,29.99,16,3,17,0.00
2013-5-17,85,77,70,73,69,65,89,78,55,30.05,29.97,17,2,17,0.01
2013-5-18,84,79,74,74,72,70,90,79,68,30.06,29.98,18,3,20,0.00
2013-5-19,84,78,72,72,70,66,90,75,56,30.05,29.95,17,3,17,0.00
2013-5-20,78,75,69,74,71,66,91,88,81,30.04,29.92,19,2,20,1.52
2013-5-21,82,76,70,73,70,67,91,84,68,30.01,29.88,18,4,19,0.24
2013-5-22,85,76,71,75,71,67,90,86,69,29.92,29.84,16,1,17,0.11
2013-5-23,90,80,73,76,72,67,91,77,49,29.96,29.86,14,2,15,0.10
2013-5-24,90,81,74,75,73,68,90,78,52,30.01,29.90,14,2,17,0.05
2013-5-25,82,79,75,74,69,65,89,73,57,30.11,29.99,22,7,22,0.02
2013-5-26,82,77,71,68,66,62,82,68,59,30.13,30.06,22,6,22,0.01
2013-5-27,82,78,73,73,70,65,90,78,68,30.11,30.01,23,7,23,0.00
2013-5-28,81,77,74,74,72,70,89,84,76,30.06,29.99,24,7,24,0.04
2013-5-29,80,75,71,74,71,67,91,86,77,30.05,29.98,26,6,26,0.07
2013-5-30,81,77,71,75,72,68,90,85,75,30.02,29.95,27,8,30,0.04
2013-5-31,82,78,74,75,73,71,90,85,77,30.01,29.95,21,6,21,0.03
2013-6-1,82,76,73,77,73,70,91,89,78,29.98,29.91,19,3,20,0.02
2013-6-2,88,78,72,77,73,69,91,85,64,29.96,29.87,15,1,17,0.04
2013-6-3,87,79,73,76,73,70,91,83,64,29.99,29.86,13,1,14,0.32
2013-6-4,85,78,73,76,73,70,91,85,65,30.00,29.91,13,1,13,0.09
2013-6-5,83,80,78,76,75,74,88,85,78,29.98,29.85,15,4,15,0.01
2013-6-6,88,80,75,79,75,71,90,85,70,29.86,29.73,23,5,26,0.86
2013-6-7,89,77,73,77,72,70,91,87,67,29.96,29.80,23,2,23,3.45
2013-6-8,86,79,74,78,74,71,91,85,72,30.06,29.92,18,2,18,0.01
2013-6-9,86,82,79,76,75,72,87,79,68,30.07,30.00,19,6,21,0.00
2013-6-10,86,82,79,76,76,74,86,80,71,30.05,29.97,9,5,17,0.00
2013-6-11,88,82,78,77,76,74,89,83,64,30.04,29.96,6,2,15,0.07
2013-6-12,86,78,76,77,74,73,90,87,72,30.03,29.97,5,0,15,0.26
2013-6-13,88,79,75,77,73,70,91,82,59,30.01,29.89,13,1,13,0.07
2013-6-14,91,80,74,77,73,70,91,80,55,29.93,29.83,18,2,18,0.01
2013-6-15,89,81,75,77,74,72,90,79,60,30.01,29.89,12,1,12,0.00
2013-6-16,89,82,76,77,75,72,90,79,61,30.05,29.97,16,3,17,0.01
2013-6-17,89,84,77,77,75,73,89,77,62,30.04,29.96,16,3,16,0.00
2013-6-18,90,84,78,76,75,74,89,76,62,30.02,29.93,18,3,18,0.00
2013-6-19,82,80,78,76,76,75,89,86,82,30.00,29.95,6,0,6,0.00
2013-6-20,90,79,73,76,72,70,90,80,59,30.05,29.98,10,1,19,0.12
2013-6-21,89,82,74,76,73,70,90,76,55,30.07,29.98,15,3,16,0.50
2013-6-22,82,79,78,76,74,72,88,85,76,30.05,29.99,14,0,14,0.00
2013-6-23,88,82,78,76,74,71,86,76,62,30.09,30.00,25,4,31,0.15
2013-6-24,86,82,78,76,74,72,87,76,63,30.12,30.03,18,5,21,0.08
2013-6-25,87,82,75,78,75,71,90,80,69,30.10,29.99,18,4,19,0.03
2013-6-26,88,83,77,77,75,72,89,77,61,30.03,29.96,17,4,17,0.03
2013-6-27,87,82,74,77,75,70,89,80,66,30.02,29.91,18,2,18,0.02
2013-6-28,89,81,72,78,74,68,90,81,63,29.95,29.81,26,2,26,0.96
2013-6-29,92,80,73,77,74,70,91,83,54,29.87,29.78,18,1,18,0.45
2013-6-30,88,80,76,78,74,71,90,83,64,29.91,29.80,22,2,25,0.24
2013-7-1,88,81,77,78,75,72,89,82,67,29.99,29.88,23,3,25,0.06
2013-7-2,88,82,77,78,76,73,89,82,71,30.07,29.93,19,4,19,0.01
2013-7-3,87,82,76,77,75,71,89,81,69,30.09,30.00,29,5,31,0.00
2013-7-4,87,82,74,76,74,70,90,80,68,30.12,30.02,23,5,27,0.00
2013-7-5,86,81,75,77,75,72,90,83,73,30.09,30.00,25,5,25,0.00
2013-7-6,86,82,79,77,75,72,86,78,66,30.08,29.98,23,6,23,0.00
2013-7-7,86,82,78,76,75,73,87,78,69,30.06,29.98,23,5,23,0.00
2013-7-8,87,82,78,75,74,72,84,76,64,30.10,30.03,18,3,18,0.00
2013-7-9,85,80,76,74,73,69,90,78,62,30.09,30.00,19,3,19,0.00
2013-7-10,84,78,72,75,73,69,91,85,72,30.04,29.95,16,2,16,0.00
2013-7-11,89,81,75,78,74,71,91,80,62,30.00,29.89,19,2,19,0.00
2013-7-12,88,80,74,77,74,71,90,82,61,29.93,29.85,17,1,18,0.00
2013-7-13,86,76,72,76,71,69,91,87,67,29.98,29.87,22,1,22,0.00
2013-7-14,88,78,71,76,72,68,91,83,62,30.05,29.94,19,2,19,1.10
2013-7-15,86,79,72,76,72,69,91,81,62,30.05,29.96,20,3,21,0.04
2013-7-16,82,78,73,74,72,69,90,82,71,30.10,30.00,25,5,26,0.04
2013-7-17,79,75,72,75,72,69,91,89,81,30.11,30.00,23,2,23,0.90
2013-7-18,83,77,71,77,72,68,91,87,75,30.08,30.01,23,2,23,1.11
2013-7-19,86,80,73,78,74,70,91,85,71,30.08,30.00,8,3,21,0.01
2013-7-20,87,80,75,78,75,72,90,84,71,30.07,29.99,16,2,17,0.28
2013-7-21,89,80,76,79,75,69,90,84,70,30.11,30.00,14,1,14,0.05
2013-7-22,90,83,77,77,75,73,90,78,60,30.10,30.02,17,2,17,0.00
2013-7-23,93,84,76,77,74,71,90,75,49,30.07,29.92,16,2,16,0.00
2013-7-24,92,83,76,77,74,71,90,74,53,29.98,29.86,16,3,16,0.09
2013-7-25,91,84,76,77,75,72,89,75,59,29.98,29.87,17,3,17,0.00
2013-7-26,92,82,76,77,75,72,89,80,60,29.99,29.89,12,3,25,0.56
2013-7-27,87,79,75,78,75,71,90,86,72,29.96,29.89,19,1,19,0.20
2013-7-28,86,80,75,78,75,71,90,85,74,30.03,29.91,19,1,19,0.22
2013-7-29,88,82,76,78,76,72,90,82,66,30.09,29.98,17,3,17,0.01
2013-7-30,88,83,75,79,76,71,90,80,68,30.12,30.03,17,4,18,0.32
2013-7-31,88,84,78,78,76,72,89,77,62,30.07,29.96,19,4,19,0.00
2013-8-1,87,83,79,76,74,72,87,76,64,30.01,29.89,15,5,18,0.00
2013-8-2,89,81,76,76,74,70,89,79,62,30.01,29.87,16,2,16,0.05
2013-8-3,87,80,76,78,75,71,89,85,71,30.07,29.98,33,1,33,0.02
2013-8-4,93,83,76,78,74,73,90,77,55,30.06,29.94,5,1,13,0.00
2013-8-5,90,82,77,78,75,73,89,80,63,30.00,29.90,21,3,23,0.01
2013-8-6,90,81,77,78,75,72,90,82,65,29.95,29.83,15,1,15,0.00
2013-8-7,88,82,76,78,75,73,90,79,65,29.94,29.86,19,3,19,0.00
2013-8-8,89,84,79,77,75,73,88,76,60,29.97,29.88,22,5,22,0.04
2013-8-9,86,82,78,77,74,71,86,77,68,30.03,29.91,22,4,22,0.04
2013-8-10,89,84,79,78,76,73,85,77,59,30.07,29.99,20,5,20,0.00
2013-8-11,89,84,81,78,76,74,85,77,67,30.09,30.01,17,4,17,0.00
2013-8-12,87,83,77,77,75,72,89,78,62,30.07,29.97,20,4,20,0.00
2013-8-13,90,84,78,78,75,72,89,76,58,30.00,29.91,16,3,16,0.00
2013-8-14,90,84,77,77,75,73,90,76,59,29.98,29.88,18,3,18,0.00
2013-8-15,86,81,76,78,75,72,90,83,73,30.02,29.92,13,2,13,0.07
2013-8-16,90,84,79,79,77,75,89,80,64,30.01,29.93,17,3,17,0.00
2013-8-17,90,85,81,79,77,76,86,78,67,30.03,29.95,21,4,21,0.00
2013-8-18,88,84,81,79,77,75,84,78,69,30.03,29.94,23,5,23,0.00
2013-8-19,89,84,79,78,76,73,87,78,63,30.03,29.92,23,5,23,0.03
2013-8-20,89,84,80,78,76,72,85,76,60,30.01,29.94,20,5,20,0.00
2013-8-21,87,82,78,79,77,73,89,83,71,30.03,29.95,24,4,24,0.33
2013-8-22,89,83,73,79,76,70,90,81,69,30.05,29.91,31,4,31,0.67
2013-8-23,89,83,78,78,76,74,89,80,64,29.97,29.89,19,3,19,0.00
2013-8-24,89,83,76,78,75,71,90,79,63,30.07,29.92,15,2,16,0.27
2013-8-25,85,80,76,76,74,72,90,84,69,30.11,29.98,13,2,14,0.06
2013-8-26,87,80,74,77,74,71,90,82,66,30.08,29.97,16,2,17,0.04
2013-8-27,84,78,74,75,72,70,90,82,64,30.01,29.92,13,1,13,0.04
2013-8-28,87,79,72,76,73,68,90,83,66,30.00,29.90,18,2,18,0.43
2013-8-29,89,81,74,77,74,71,90,80,63,29.98,29.88,15,2,15,0.00
2013-8-30,91,83,76,76,74,70,90,75,54,29.97,29.85,15,2,15,0.00
2013-8-31,88,79,74,78,74,71,90,83,64,29.94,29.87,16,1,16,0.50
2013-9-1,88,79,74,78,74,71,91,86,67,29.96,29.89,12,0,12,0.02
2013-9-2,90,79,74,79,74,70,91,85,59,29.99,29.90,21,1,21,0.41
2013-9-3,88,80,74,78,74,70,91,83,64,29.98,29.89,13,1,15,0.00
2013-9-4,85,81,77,78,76,73,90,86,79,30.02,29.90,18,1,18,0.83
2013-9-5,88,83,78,78,76,74,89,81,67,30.02,29.95,14,2,15,0.00
2013-9-6,90,84,78,78,76,74,89,78,61,29.99,29.87,15,3,15,0.00
2013-9-7,84,78,73,78,73,68,90,87,74,29.94,29.86,17,1,17,0.52
2013-9-8,88,78,73,76,73,70,90,84,65,29.91,29.81,18,1,18,0.00
2013-9-9,87,81,74,77,74,71,90,79,64,29.96,29.85,23,3,24,0.20
2013-9-10,86,81,76,77,75,72,90,81,67,30.00,29.91,21,4,21,0.11
2013-9-11,82,79,74,76,74,70,89,85,78,30.01,29.92,21,2,21,0.47
2013-9-12,84,80,76,77,75,72,90,85,76,29.97,29.84,11,1,11,0.05
2013-9-13,91,82,75,78,74,71,90,78,57,29.86,29.76,14,1,14,0.01
2013-9-14,90,83,76,77,74,71,89,76,55,29.93,29.78,16,2,16,0.00
2013-9-15,86,80,77,78,75,72,88,85,76,30.01,29.87,21,2,22,0.41
2013-9-16,84,80,74,78,75,70,90,86,80,30.00,29.91,23,3,25,0.22
2013-9-17,81,79,75,76,74,72,90,86,81,29.99,29.87,14,4,14,0.04
2013-9-18,85,79,74,77,74,71,89,84,72,29.97,29.87,14,2,14,0.04
2013-9-19,86,79,74,77,74,71,90,84,71,29.96,29.88,19,4,19,0.08
2013-9-20,84,79,73,73,71,68,89,78,61,29.95,29.85,17,3,17,0.11
2013-9-21,86,80,73,75,73,70,89,80,67,29.88,29.73,13,2,13,0.08
2013-9-22,91,83,76,77,74,71,89,77,53,29.83,29.71,15,2,15,0.04
2013-9-23,86,80,76,78,75,72,89,86,72,29.94,29.81,12,1,12,0.32
2013-9-24,92,81,74,80,74,71,91,81,59,29.93,29.82,23,2,24,0.42
2013-9-25,88,80,74,79,74,70,89,83,63,29.87,29.76,18,2,18,0.02
2013-9-26,87,80,76,80,75,72,90,86,76,29.83,29.75,23,3,23,0.03
2013-9-27,87,80,74,75,73,70,90,80,58,29.88,29.77,15,2,16,0.02
2013-9-28,85,79,74,75,72,70,89,81,66,29.92,29.83,20,4,20,0.01
2013-9-29,85,79,73,73,71,68,90,77,60,29.92,29.83,16,2,18,0.01
2013-9-30,87,80,73,74,71,69,89,76,61,29.96,29.86,14,2,14,0.01
2013-10-1,86,81,75,75,72,71,87,75,63,29.98,29.91,19,4,19,0.01
2013-10-2,84,81,79,75,73,71,82,77,67,30.00,29.92,18,5,20,0.00
2013-10-3,86,81,78,76,74,71,86,79,70,30.01,29.90,16,3,16,0.00
2013-10-4,85,80,74,74,72,70,89,78,62,30.01,29.93,16,3,16,0.00
2013-10-5,86,79,72,73,71,67,89,77,56,29.99,29.88,15,2,15,0.00
2013-10-6,89,81,74,76,72,68,89,75,52,29.92,29.82,16,1,16,0.00
2013-10-7,90,78,74,75,72,69,89,81,55,29.86,29.76,26,2,27,0.00
2013-10-8,90,81,75,76,73,71,90,79,61,29.89,29.80,14,2,14,0.00
2013-10-9,83,77,73,76,72,68,88,84,76,29.94,29.85,17,3,17,0.00
2013-10-10,84,78,72,74,71,68,90,79,65,29.97,29.89,19,4,19,0.00
2013-10-11,84,77,70,71,68,67,89,75,58,29.97,29.89,15,3,16,0.00
2013-10-12,84,76,69,71,68,66,90,77,58,29.99,29.90,12,2,13,0.00
2013-10-13,83,77,72,71,68,64,89,74,54,30.01,29.91,17,3,17,0.00
2013-10-14,84,77,71,70,69,67,89,77,60,29.98,29.86,16,2,16,0.00
2013-10-15,84,77,71,72,70,68,89,79,60,29.91,29.82,15,3,15,0.00
2013-10-16,84,76,72,72,69,66,89,81,58,29.91,29.84,14,2,14,0.00
2013-10-17,85,78,71,73,70,68,90,79,64,29.92,29.84,6,2,13,0.00
2013-10-18,87,79,72,74,71,68,90,78,63,29.94,29.85,7,2,16,0.00
2013-10-19,88,81,73,74,72,69,88,76,61,29.92,29.83,6,2,16,0.00
2013-10-20,88,81,76,77,74,71,89,80,57,29.92,29.83,6,2,14,0.00
2013-10-21,88,81,76,77,75,72,89,81,65,29.96,29.86,10,2,16,0.00
2013-10-22,91,82,74,77,74,71,89,78,59,29.92,29.78,17,2,17,0.00
2013-10-23,86,80,76,75,73,69,88,79,67,29.91,29.77,15,3,15,0.00
2013-10-24,79,76,72,70,66,63,83,72,62,30.05,29.89,16,4,16,0.00
2013-10-25,80,75,68,67,65,63,85,72,58,30.10,30.02,21,5,21,0.00
2013-10-26,80,73,67,67,64,63,87,75,57,30.10,30.00,17,2,17,0.00
2013-10-27,81,73,66,66,64,61,86,74,55,30.05,29.97,19,2,19,0.00
2013-10-28,82,74,66,68,65,60,89,74,51,30.10,30.00,17,2,17,0.00
2013-10-29,82,75,67,70,67,64,89,76,60,30.13,30.04,22,4,22,0.00
2013-10-30,82,78,71,69,67,65,85,71,60,30.14,30.03,20,6,20,0.00
2013-10-31,85,79,75,72,70,67,83,75,60,30.07,29.95,20,4,20,0.00
2013-11-1,87,80,75,75,72,70,85,77,62,29.97,29.84,19,2,19,0.00
2013-11-2,89,78,71,73,70,64,90,77,50,29.90,29.76,16,3,16,0.00
2013-11-3,79,73,68,66,63,61,85,72,60,29.98,29.85,24,7,26,0.00
2013-11-4,76,76,75,64,63,63,66,65,65,29.97,29.96,19,7,19,0.00
2013-11-5,81,78,76,71,69,65,84,76,64,30.04,29.97,25,11,27,0.05
2013-11-6,82,78,71,71,69,66,86,75,64,30.02,29.94,23,6,23,0.00
2013-11-7,84,76,70,72,69,66,89,79,57,29.97,29.87,13,2,13,0.00
2013-11-8,82,76,70,72,69,66,88,81,63,29.99,29.89,23,6,23,0.26
2013-11-9,78,75,73,72,70,69,89,85,79,30.07,29.97,25,9,25,0.89
2013-11-10,81,78,74,72,70,68,87,79,73,30.07,29.99,19,6,19,0.02
2013-11-11,81,76,70,72,68,66,88,78,70,30.07,30.00,18,4,19,0.00
2013-11-12,82,76,69,70,68,66,89,76,64,30.03,29.92,16,3,16,0.00
2013-11-13,75,71,68,68,64,57,85,77,65,30.16,29.94,28,9,28,0.15
2013-11-14,75,72,69,63,59,56,71,64,56,30.19,30.09,26,9,26,0.00
2013-11-15,80,76,73,69,67,63,77,72,66,30.10,29.98,21,6,21,0.00
2013-11-16,80,77,72,72,70,67,86,77,71,30.05,29.97,19,4,19,0.09
2013-11-17,83,78,72,73,70,68,87,77,67,30.03,29.96,21,3,21,0.00
2013-11-18,83,76,71,73,70,67,89,82,69,29.98,29.87,9,0,9,0.00
2013-11-19,82,75,72,73,70,68,89,84,68,29.90,29.81,18,2,18,0.00
2013-11-20,82,75,70,75,70,67,90,85,71,30.01,29.87,12,1,12,0.45
2013-11-21,80,76,72,73,71,69,89,85,75,30.09,29.99,18,3,20,0.54
2013-11-22,80,77,75,72,70,69,84,79,74,30.11,30.02,23,8,24,0.00
2013-11-23,81,76,72,72,70,67,86,80,72,30.03,29.92,17,4,17,0.00
2013-11-24,80,73,68,70,67,64,89,81,65,30.10,29.94,25,6,25,0.13
2013-11-25,74,73,71,68,65,61,86,77,68,30.16,30.00,26,10,27,0.06
2013-11-26,82,77,72,74,72,68,88,83,75,30.01,29.79,22,6,22,0.14
2013-11-27,77,71,58,73,64,52,89,79,59,30.08,29.74,27,5,27,0.71
2013-11-28,72,61,48,60,53,44,88,75,57,30.20,30.07,21,5,21,0.00
2013-11-29,75,68,59,63,59,55,89,74,59,30.22,30.14,23,6,24,0.00
2013-11-30,74,68,61,68,62,57,88,82,69,30.17,30.06,19,4,20,0.36
2013-12-1,74,68,63,69,62,59,87,84,74,30.06,29.90,12,1,12,0.61
2013-12-2,73,67,62,62,56,48,74,68,61,29.90,29.78,14,2,14,0.01
2013-12-3,79,69,61,64,55,46,68,60,52,29.96,29.85,11,1,12,0.00
2013-12-4,81,72,65,68,55,43,66,55,41,30.05,29.94,15,1,15,0.00
2013-12-5,82,74,65,67,52,34,62,47,27,30.12,30.03,19,3,19,0.00
2013-12-6,82,76,69,68,55,31,63,49,26,30.14,30.04,20,4,20,0.00
2013-12-7,82,73,66,67,29,-33,61,26,1,30.17,30.09,13,2,13,0.04
2013-12-8,82,76,70,66,33,-33,59,27,2,30.17,30.08,20,4,20,0.06
2013-12-9,82,77,71,67,44,-34,61,36,2,30.16,30.06,21,4,21,0.00
2013-12-10,83,77,70,66,22,-33,56,18,1,30.12,30.03,13,2,14,0.00
2013-12-11,82,74,69,58,13,-31,46,9,1,30.16,30.07,14,2,14,0.00
2013-12-12,78,70,64,51,13,-38,49,12,1,30.18,30.09,20,4,20,0.00
2013-12-13,76,73,65,60,48,-37,58,43,1,30.15,30.05,20,7,23,0.08
2013-12-14,81,77,71,63,28,-32,56,22,1,30.07,29.94,21,5,22,0.00
2013-12-15,83,76,70,49,5,-30,32,3,1,30.02,29.89,20,2,20,0.00
2013-12-16,73,67,61,56,17,-39,55,18,1,30.12,29.99,14,4,15,0.00
2013-12-17,76,66,58,59,25,-38,57,24,2,30.14,30.05,17,4,17,0.00
2013-12-18,74,65,59,58,24,-39,58,24,1,30.19,30.10,18,4,18,0.00
2013-12-19,76,68,56,59,32,-22,56,30,9,30.19,30.10,18,3,19,0.00
2013-12-20,80,75,66,61,27,-20,53,20,2,30.14,30.06,14,4,19,0.00
2013-12-21,82,78,75,61,17,-32,50,13,1,30.10,30.01,22,6,22,0.00
2013-12-22,83,78,76,65,21,-31,55,18,1,30.11,30.03,18,6,21,0.00
2013-12-23,83,77,70,65,24,-32,55,18,2,30.13,30.06,20,4,20,0.00
2013-12-24,81,70,66,58,8,-36,46,7,2,30.14,30.03,20,4,20,0.00
2013-12-25,76,72,70,55,30,-34,49,24,2,30.12,30.05,22,8,22,0.03
2013-12-26,77,74,71,49,14,-33,38,12,1,30.12,30.02,15,5,15,0.05
2013-12-27,80,74,66,46,8,-32,31,7,1,30.15,30.04,17,5,17,0.01
2013-12-28,79,76,74,48,18,-32,33,12,1,30.13,29.97,22,6,22,0.00
2013-12-29,82,77,73,55,12,-30,41,8,1,29.99,29.88,19,4,20,0.00
2013-12-30,77,72,66,26,0,-31,15,1,1,30.10,29.93,13,3,13,0.00
2013-12-31,78,72,67,60,32,-33,57,29,6,30.18,30.06,22,7,22,0.00
2014-1-1,80,74,72,52,8,-33,45,7,1,30.15,29.99,18,4,18,0.47
2014-1-2,85,75,66,68,25,-32,57,21,4,29.99,29.82,20,4,20,0.01